createdAt,value
2022-09-12T00:01:27.466Z,7.77
2022-09-12T00:03:59.548Z,6.50
2022-09-12T00:06:28.686Z,6.37
2022-09-12T00:08:58.286Z,7.33
2022-09-12T00:11:26.220Z,5.23
2022-09-12T00:13:57.264Z,7.77
2022-09-12T00:16:25.388Z,7.37
2022-09-12T00:18:53.533Z,7.90
2022-09-12T00:21:21.105Z,5.47
2022-09-12T00:23:47.996Z,6.80
2022-09-12T00:26:15.509Z,7.57
2022-09-12T00:28:42.650Z,7.60
2022-09-12T00:31:12.110Z,6.47
2022-09-12T00:33:38.945Z,7.47
2022-09-12T00:36:12.278Z,6.77
2022-09-12T00:38:41.857Z,7.17
2022-09-12T00:41:16.607Z,6.50
2022-09-12T00:43:52.622Z,7.63
2022-09-12T00:46:31.785Z,7.07
2022-09-12T00:49:23.840Z,6.47
2022-09-12T00:52:06.368Z,6.00
2022-09-12T00:54:37.890Z,6.50
2022-09-12T00:57:09.365Z,7.67
2022-09-12T00:59:47.008Z,7.30
2022-09-12T01:02:13.787Z,6.30
2022-09-12T01:04:41.745Z,8.10
2022-09-12T01:07:09.045Z,7.33
2022-09-12T01:09:37.746Z,7.70
2022-09-12T01:12:05.927Z,9.37
2022-09-12T01:14:33.093Z,8.40
2022-09-12T01:16:59.710Z,7.43
2022-09-12T01:19:49.344Z,8.63
2022-09-12T01:22:40.753Z,7.20
2022-09-12T01:25:41.241Z,6.73
2022-09-12T01:28:07.750Z,6.53
2022-09-12T01:31:00.620Z,6.00
2022-09-12T01:33:48.793Z,6.47
2022-09-12T01:36:27.622Z,7.30
2022-09-12T01:39:05.390Z,6.87
2022-09-12T01:41:50.150Z,6.53
2022-09-12T01:44:35.177Z,7.03
2022-09-12T01:47:22.130Z,9.73
2022-09-12T01:50:02.909Z,7.53
2022-09-12T01:52:45.548Z,6.13
2022-09-12T01:55:27.354Z,8.03
2022-09-12T01:58:14.609Z,7.00
2022-09-12T02:01:08.207Z,6.67
2022-09-12T02:03:44.571Z,6.57
2022-09-12T02:06:39.512Z,6.70
2022-09-12T02:09:37.844Z,6.13
2022-09-12T02:12:08.613Z,7.10
2022-09-12T02:14:40.125Z,6.77
2022-09-12T02:17:26.259Z,7.50
2022-09-12T02:20:02.093Z,7.17
2022-09-12T02:22:31.474Z,8.20
2022-09-12T02:25:00.780Z,6.47
2022-09-12T02:27:56.534Z,8.33
2022-09-12T02:30:23.734Z,6.20
2022-09-12T02:33:04.059Z,9.60
2022-09-12T02:35:33.940Z,7.10
2022-09-12T02:38:12.411Z,7.30
2022-09-12T02:40:39.577Z,5.60
2022-09-12T02:43:06.809Z,5.47
2022-09-12T02:45:35.543Z,7.07
2022-09-12T02:48:08.289Z,6.07
2022-09-12T02:50:35.485Z,6.37
2022-09-12T02:53:04.953Z,6.80
2022-09-12T02:55:33.656Z,6.17
2022-09-12T02:58:03.162Z,6.00
2022-09-12T03:00:35.698Z,5.97
2022-09-12T03:03:21.766Z,6.03
2022-09-12T03:05:58.977Z,6.63
2022-09-12T03:08:47.057Z,6.37
2022-09-12T03:11:36.190Z,7.20
2022-09-12T03:14:36.481Z,7.87
2022-09-12T03:17:05.836Z,6.77
2022-09-12T03:19:57.818Z,6.67
2022-09-12T03:23:03.861Z,7.10
2022-09-12T03:25:41.925Z,7.67
2022-09-12T03:28:15.229Z,7.50
2022-09-12T03:30:45.882Z,8.70
2022-09-12T03:33:14.441Z,5.93
2022-09-12T03:35:41.614Z,5.23
2022-09-12T03:38:08.695Z,6.33
2022-09-12T03:40:36.547Z,5.70
2022-09-12T03:43:04.558Z,6.07
2022-09-12T03:45:31.394Z,6.83
2022-09-12T03:47:59.204Z,5.60
2022-09-12T03:50:25.973Z,6.70
2022-09-12T03:52:52.698Z,7.73
2022-09-12T03:55:19.725Z,8.03
2022-09-12T03:57:46.280Z,6.93
2022-09-12T04:00:17.649Z,9.67
2022-09-12T04:02:46.376Z,7.97
2022-09-12T04:05:12.997Z,7.00
2022-09-12T04:07:39.566Z,9.17
2022-09-12T04:10:06.708Z,7.23
2022-09-12T04:12:33.276Z,9.77
2022-09-12T04:14:59.845Z,9.47
2022-09-12T04:17:26.385Z,10.70
2022-09-12T04:19:52.969Z,9.47
2022-09-12T04:22:20.396Z,9.27
2022-09-12T04:24:47.044Z,9.73
2022-09-12T04:27:13.636Z,9.07
2022-09-12T04:29:40.264Z,9.50
2022-09-12T04:32:06.873Z,10.53
2022-09-12T04:34:33.413Z,11.20
2022-09-12T04:37:01.148Z,8.63
2022-09-12T04:39:27.723Z,8.60
2022-09-12T04:41:54.273Z,8.97
2022-09-12T04:44:20.889Z,10.60
2022-09-12T04:46:47.588Z,8.07
2022-09-12T04:49:19.271Z,7.73
2022-09-12T04:51:46.097Z,8.63
2022-09-12T04:54:16.393Z,7.93
2022-09-12T04:56:45.938Z,8.00
2022-09-12T04:59:15.706Z,9.77
2022-09-12T05:01:42.718Z,7.83
2022-09-12T05:04:10.849Z,6.63
2022-09-12T05:06:38.291Z,10.37
2022-09-12T05:09:06.969Z,10.63
2022-09-12T05:12:02.804Z,7.00
2022-09-12T05:14:23.608Z,9.13
2022-09-12T05:16:50.228Z,8.37
2022-09-12T05:19:17.272Z,10.07
2022-09-12T05:21:43.887Z,9.17
2022-09-12T05:24:11.305Z,8.00
2022-09-12T05:26:38.176Z,8.70
2022-09-12T05:29:06.032Z,9.03
2022-09-12T05:31:32.949Z,10.77
2022-09-12T05:33:59.489Z,10.80
2022-09-12T05:36:30.388Z,12.20
2022-09-12T05:38:57.268Z,12.60
2022-09-12T05:41:26.465Z,13.03
2022-09-12T05:43:54.765Z,12.73
2022-09-12T05:46:25.572Z,16.27
2022-09-12T05:48:56.287Z,16.87
2022-09-12T05:51:28.439Z,17.17
2022-09-12T05:54:00.010Z,21.17
2022-09-12T05:56:28.956Z,17.83
2022-09-12T05:59:07.321Z,19.83
2022-09-12T06:01:35.291Z,21.10
2022-09-12T06:04:04.572Z,17.13
2022-09-12T06:06:32.651Z,19.57
2022-09-12T06:09:01.744Z,25.33
2022-09-12T06:11:30.353Z,17.10
2022-09-12T06:13:58.308Z,14.60
2022-09-12T06:16:28.113Z,16.53
2022-09-12T06:18:56.653Z,14.90
2022-09-12T06:21:24.663Z,11.53
2022-09-12T06:23:51.493Z,13.37
2022-09-12T06:26:21.427Z,11.30
2022-09-12T06:28:48.140Z,10.03
2022-09-12T06:31:17.528Z,11.70
2022-09-12T06:33:46.782Z,12.60
2022-09-12T06:36:22.925Z,12.33
2022-09-12T06:38:55.234Z,11.13
2022-09-12T06:41:21.917Z,11.67
2022-09-12T06:43:48.485Z,14.93
2022-09-12T06:46:15.103Z,11.13
2022-09-12T06:48:42.320Z,11.43
2022-09-12T06:51:15.000Z,13.50
2022-09-12T06:53:42.516Z,9.10
2022-09-12T06:56:14.248Z,11.57
2022-09-12T06:58:41.872Z,10.87
2022-09-12T07:01:15.026Z,11.23
2022-09-12T07:03:42.974Z,10.83
2022-09-12T07:06:12.265Z,13.23
2022-09-12T07:08:40.777Z,12.57
2022-09-12T07:11:16.179Z,12.82
2022-09-12T07:13:45.203Z,8.95
2022-09-12T07:16:17.298Z,9.75
2022-09-12T07:18:54.536Z,10.43
2022-09-12T07:21:21.432Z,12.57
2022-09-12T07:23:49.091Z,9.52
2022-09-12T07:26:16.578Z,11.52
2022-09-12T07:28:43.867Z,12.65
2022-09-12T07:31:14.802Z,9.82
2022-09-12T07:33:42.638Z,10.57
2022-09-12T07:36:12.403Z,11.73
2022-09-12T07:38:39.793Z,13.20
2022-09-12T07:41:15.366Z,11.43
2022-09-12T07:43:41.982Z,11.87
2022-09-12T07:46:09.147Z,11.20
2022-09-12T07:48:36.113Z,11.37
2022-09-12T07:51:05.700Z,14.37
2022-09-12T07:53:35.318Z,13.70
2022-09-12T07:56:03.036Z,13.50
2022-09-12T07:58:30.721Z,14.33
2022-09-12T08:01:15.333Z,12.70
2022-09-12T08:03:43.872Z,13.93
2022-09-12T08:06:15.774Z,15.17
2022-09-12T08:08:43.142Z,13.57
2022-09-12T08:11:12.624Z,14.67
2022-09-12T08:13:40.593Z,14.23
2022-09-12T08:16:29.463Z,16.00
2022-09-12T08:18:56.053Z,13.60
2022-09-12T08:21:25.207Z,12.47
2022-09-12T08:23:54.039Z,13.93
2022-09-12T08:26:20.988Z,15.73
2022-09-12T08:28:48.033Z,14.10
2022-09-12T08:31:17.252Z,16.00
2022-09-12T08:33:44.744Z,15.57
2022-09-12T08:36:17.257Z,17.83
2022-09-12T08:38:46.070Z,14.03
2022-09-12T08:41:18.723Z,15.03
2022-09-12T08:44:19.779Z,14.33
2022-09-12T08:47:31.565Z,16.20
2022-09-12T08:50:10.098Z,15.33
2022-09-12T08:52:41.273Z,14.63
2022-09-12T08:55:36.727Z,13.90
2022-09-12T08:58:20.092Z,15.30
2022-09-12T09:01:08.440Z,16.73
2022-09-12T09:04:01.286Z,14.17
2022-09-12T09:06:59.114Z,15.60
2022-09-12T09:09:43.016Z,13.77
2022-09-12T09:12:39.950Z,14.57
2022-09-12T09:15:28.287Z,17.80
2022-09-12T09:18:18.370Z,16.30
2022-09-12T09:21:06.407Z,15.17
2022-09-12T09:23:46.648Z,13.10
2022-09-12T09:26:20.025Z,14.67
2022-09-12T09:29:07.655Z,15.27
2022-09-12T09:31:38.573Z,13.10
2022-09-12T09:34:35.323Z,12.80
2022-09-12T09:37:29.974Z,11.90
2022-09-12T09:40:02.552Z,15.40
2022-09-12T09:42:31.997Z,11.33
2022-09-12T09:45:02.770Z,12.27
2022-09-12T09:47:29.391Z,13.80
2022-09-12T09:49:56.003Z,16.30
2022-09-12T09:52:29.453Z,12.23
2022-09-12T09:55:00.040Z,12.67
2022-09-12T09:57:35.703Z,13.10
2022-09-12T10:00:21.913Z,12.73
2022-09-12T10:03:04.329Z,12.27
2022-09-12T10:05:34.829Z,10.03
2022-09-12T10:08:03.269Z,10.03
2022-09-12T10:10:29.804Z,10.83
2022-09-12T10:13:21.906Z,8.40
2022-09-12T10:16:02.046Z,10.43
2022-09-12T10:18:40.631Z,10.70
2022-09-12T10:21:29.425Z,10.43
2022-09-12T10:24:24.320Z,8.20
2022-09-12T10:26:57.686Z,7.30
2022-09-12T10:29:32.225Z,7.70
2022-09-12T10:32:03.146Z,10.57
2022-09-12T10:34:34.742Z,7.50
2022-09-12T10:37:31.965Z,8.37
2022-09-12T10:40:00.659Z,5.10
2022-09-12T10:42:49.495Z,6.43
2022-09-12T10:45:37.485Z,6.03
2022-09-12T10:48:29.180Z,8.40
2022-09-12T10:50:57.006Z,5.50
2022-09-12T10:53:25.181Z,6.30
2022-09-12T10:56:06.822Z,7.23
2022-09-12T10:58:36.722Z,5.73
2022-09-12T11:01:32.077Z,6.50
2022-09-12T11:04:26.181Z,6.50
2022-09-12T11:07:07.865Z,4.63
2022-09-12T11:09:48.449Z,4.63
2022-09-12T11:12:38.841Z,5.73
2022-09-12T11:15:36.285Z,5.07
2022-09-12T11:18:27.930Z,5.90
2022-09-12T11:21:02.011Z,5.27
2022-09-12T11:24:16.057Z,6.33
2022-09-12T11:26:47.386Z,6.77
2022-09-12T11:29:21.466Z,5.77
2022-09-12T11:32:06.783Z,5.43
2022-09-12T11:34:50.728Z,5.67
2022-09-12T11:37:27.694Z,4.67
2022-09-12T11:39:56.264Z,5.87
2022-09-12T11:42:28.293Z,5.63
2022-09-12T11:45:07.963Z,5.97
2022-09-12T11:47:36.888Z,6.00
2022-09-12T11:50:15.989Z,6.83
2022-09-12T11:52:42.545Z,6.10
2022-09-12T11:55:17.687Z,7.30
2022-09-12T11:57:52.839Z,7.70
2022-09-12T12:00:39.304Z,8.40
2022-09-12T12:03:27.097Z,9.27
2022-09-12T12:06:19.353Z,7.10
2022-09-12T12:08:47.814Z,8.40
2022-09-12T12:11:31.757Z,5.77
2022-09-12T12:14:12.777Z,6.13
2022-09-12T12:16:41.045Z,6.90
2022-09-12T12:19:34.384Z,8.15
2022-09-12T12:22:17.079Z,6.53
2022-09-12T12:25:05.788Z,8.05
2022-09-12T12:27:44.498Z,8.13
2022-09-12T12:30:29.418Z,7.97
2022-09-12T12:33:12.934Z,6.97
2022-09-12T12:35:42.261Z,9.80
2022-09-12T12:38:38.157Z,7.40
2022-09-12T12:41:17.091Z,8.48
2022-09-12T12:43:47.837Z,7.60
2022-09-12T12:46:20.865Z,7.68
2022-09-12T12:49:20.013Z,7.95
2022-09-12T12:52:03.261Z,8.95
2022-09-12T12:54:42.064Z,7.18
2022-09-12T12:57:19.622Z,7.72
2022-09-12T12:59:56.068Z,8.95
2022-09-12T13:02:32.581Z,6.53
2022-09-12T13:05:02.982Z,6.97
2022-09-12T13:07:34.481Z,7.22
2022-09-12T13:10:02.072Z,7.00
2022-09-12T13:12:33.998Z,5.93
2022-09-12T13:15:02.730Z,7.50
2022-09-12T13:17:35.293Z,4.38
2022-09-12T13:20:29.651Z,13.02
2022-09-12T13:22:57.817Z,9.85
2022-09-12T13:25:26.227Z,20.55
2022-09-12T13:28:04.828Z,5.35
2022-09-12T13:30:37.586Z,4.15
2022-09-12T13:33:39.817Z,10.35
2022-09-12T13:36:33.515Z,6.57
2022-09-12T13:39:03.252Z,7.68
2022-09-12T13:41:49.549Z,4.80
2022-09-12T13:44:19.537Z,5.30
2022-09-12T13:46:47.734Z,5.60
2022-09-12T13:49:38.101Z,7.68
2022-09-12T13:52:08.225Z,6.82
2022-09-12T13:54:37.982Z,5.85
2022-09-12T13:57:05.677Z,6.78
2022-09-12T13:59:44.455Z,5.68
2022-09-12T14:02:22.253Z,6.63
2022-09-12T14:05:09.321Z,7.95
2022-09-12T14:07:57.023Z,5.88
2022-09-12T14:10:31.734Z,7.95
2022-09-12T14:13:00.828Z,4.80
2022-09-12T14:15:30.581Z,6.78
2022-09-12T14:18:01.475Z,4.22
2022-09-12T14:20:33.447Z,5.10
2022-09-12T14:23:04.143Z,4.73
2022-09-12T14:25:37.380Z,7.10
2022-09-12T14:28:04.758Z,4.43
2022-09-12T14:30:34.633Z,4.60
2022-09-12T14:33:10.161Z,5.80
2022-09-12T14:35:42.733Z,3.50
2022-09-12T14:38:15.990Z,4.40
2022-09-12T14:40:59.539Z,3.20
2022-09-12T14:43:29.349Z,5.33
2022-09-12T14:46:02.863Z,8.07
2022-09-12T14:48:32.660Z,4.73
2022-09-12T14:50:59.886Z,4.27
2022-09-12T14:53:36.451Z,4.40
2022-09-12T14:56:12.476Z,5.03
2022-09-12T14:58:41.028Z,4.60
2022-09-12T15:01:08.044Z,3.73
2022-09-12T15:03:35.979Z,5.60
2022-09-12T15:06:04.813Z,4.77
2022-09-12T15:08:32.187Z,3.40
2022-09-12T15:10:59.400Z,3.83
2022-09-12T15:13:27.986Z,3.57
2022-09-12T15:15:55.699Z,4.27
2022-09-12T15:18:24.462Z,4.07
2022-09-12T15:20:54.828Z,3.20
2022-09-12T15:23:27.349Z,4.33
2022-09-12T15:25:54.130Z,4.70
2022-09-12T15:28:22.952Z,3.33
2022-09-12T15:30:52.202Z,3.80
2022-09-12T15:33:21.009Z,4.10
2022-09-12T15:35:47.676Z,4.87
2022-09-12T15:38:14.355Z,6.13
2022-09-12T15:40:41.001Z,4.23
2022-09-12T15:43:07.636Z,5.50
2022-09-12T15:45:35.329Z,3.67
2022-09-12T15:48:03.266Z,5.73
2022-09-12T15:50:30.722Z,4.33
2022-09-12T15:52:58.350Z,5.03
2022-09-12T15:55:31.985Z,3.90
2022-09-12T15:58:03.556Z,3.83
2022-09-12T16:00:32.945Z,3.40
2022-09-12T16:02:59.543Z,4.47
2022-09-12T16:05:26.794Z,4.33
2022-09-12T16:07:54.638Z,4.00
2022-09-12T16:10:27.397Z,3.60
2022-09-12T16:12:54.497Z,4.00
2022-09-12T16:15:23.658Z,3.30
2022-09-12T16:17:51.157Z,2.90
2022-09-12T16:20:19.224Z,3.67
2022-09-12T16:22:45.942Z,4.13
2022-09-12T16:25:12.591Z,3.70
2022-09-12T16:27:39.505Z,3.13
2022-09-12T16:30:07.459Z,4.70
2022-09-12T16:32:34.366Z,3.03
2022-09-12T16:35:00.996Z,3.40
2022-09-12T16:37:27.921Z,3.73
2022-09-12T16:39:54.706Z,3.30
2022-09-12T16:42:21.381Z,3.47
2022-09-12T16:44:47.965Z,4.10
2022-09-12T16:47:15.093Z,3.17
2022-09-12T16:49:41.658Z,3.50
2022-09-12T16:52:08.361Z,3.03
2022-09-12T16:54:35.076Z,3.00
2022-09-12T16:57:02.495Z,4.23
2022-09-12T16:59:29.040Z,2.40
2022-09-12T17:01:55.661Z,2.87
2022-09-12T17:04:23.743Z,3.70
2022-09-12T17:06:50.487Z,2.90
2022-09-12T17:09:18.475Z,2.95
2022-09-12T17:11:50.160Z,2.97
2022-09-12T17:14:17.112Z,3.60
2022-09-12T17:16:51.467Z,5.13
2022-09-12T17:19:27.903Z,2.60
2022-09-12T17:21:54.666Z,2.53
2022-09-12T17:24:21.742Z,3.83
2022-09-12T17:26:48.929Z,3.07
2022-09-12T17:29:16.656Z,3.80
2022-09-12T17:31:44.387Z,4.33
2022-09-12T17:34:16.064Z,2.97
2022-09-12T17:36:44.353Z,2.63
2022-09-12T17:39:13.499Z,3.30
2022-09-12T17:41:41.809Z,2.53
2022-09-12T17:44:11.254Z,2.50
2022-09-12T17:46:39.084Z,2.63
2022-09-12T17:49:10.565Z,2.40
2022-09-12T17:51:37.240Z,3.03
2022-09-12T17:54:04.313Z,3.63
2022-09-12T17:56:32.261Z,4.03
2022-09-12T17:58:59.842Z,2.00
2022-09-12T18:01:46.971Z,2.40
2022-09-12T18:04:14.057Z,5.20
2022-09-12T18:06:47.573Z,3.07
2022-09-12T18:09:19.437Z,3.63
2022-09-12T18:11:46.695Z,3.10
2022-09-12T18:14:14.475Z,4.33
2022-09-12T18:16:41.873Z,4.13
2022-09-12T18:19:08.601Z,4.47
2022-09-12T18:21:35.306Z,3.17
2022-09-12T18:24:03.190Z,3.40
2022-09-12T18:26:30.890Z,4.70
2022-09-12T18:28:58.089Z,3.10
2022-09-12T18:31:28.975Z,3.83
2022-09-12T18:33:56.234Z,2.70
2022-09-12T18:36:22.899Z,6.87
2022-09-12T18:38:49.588Z,3.23
2022-09-12T18:41:21.622Z,4.00
2022-09-12T18:43:49.310Z,3.50
2022-09-12T18:46:18.701Z,4.23
2022-09-12T18:48:46.649Z,4.70
2022-09-12T18:51:15.739Z,2.83
2022-09-12T18:53:42.964Z,4.93
2022-09-12T18:56:13.605Z,3.37
2022-09-12T18:58:42.592Z,3.87
2022-09-12T19:01:17.678Z,3.47
2022-09-12T19:03:44.367Z,3.43
2022-09-12T19:06:17.560Z,3.40
2022-09-12T19:08:44.900Z,4.70
2022-09-12T19:11:12.574Z,4.30
2022-09-12T19:13:41.858Z,3.73
2022-09-12T19:16:11.336Z,3.87
2022-09-12T19:18:39.758Z,3.30
2022-09-12T19:21:08.784Z,3.23
2022-09-12T19:23:36.041Z,4.03
2022-09-12T19:26:05.969Z,3.83
2022-09-12T19:28:33.097Z,5.37
2022-09-12T19:31:00.273Z,5.10
2022-09-12T19:33:26.850Z,5.17
2022-09-12T19:35:53.420Z,4.40
2022-09-12T19:38:20.102Z,6.73
2022-09-12T19:40:56.830Z,5.00
2022-09-12T19:43:23.957Z,5.83
2022-09-12T19:45:51.849Z,5.37
2022-09-12T19:48:19.461Z,5.03
2022-09-12T19:50:46.188Z,5.70
2022-09-12T19:53:12.796Z,5.13
2022-09-12T19:55:39.794Z,5.40
2022-09-12T19:58:06.533Z,4.63
2022-09-12T20:00:34.554Z,3.47
2022-09-12T20:03:01.415Z,3.67
2022-09-12T20:05:28.149Z,6.37
2022-09-12T20:07:54.726Z,5.50
2022-09-12T20:10:21.284Z,4.47
2022-09-12T20:12:47.848Z,4.67
2022-09-12T20:15:14.438Z,4.17
2022-09-12T20:17:41.015Z,5.10
2022-09-12T20:20:09.739Z,4.60
2022-09-12T20:22:40.020Z,4.40
2022-09-12T20:25:07.454Z,6.97
2022-09-12T20:27:34.004Z,6.03
2022-09-12T20:30:00.582Z,4.57
2022-09-12T20:32:28.804Z,6.20
2022-09-12T20:34:56.286Z,6.10
2022-09-12T20:37:23.554Z,6.47
2022-09-12T20:39:51.073Z,5.77
2022-09-12T20:42:17.873Z,6.68
2022-09-12T20:44:44.487Z,6.67
2022-09-12T20:47:11.216Z,10.00
2022-09-12T20:49:37.789Z,6.80
2022-09-12T20:52:04.566Z,5.07
2022-09-12T20:54:31.185Z,5.53
2022-09-12T20:56:57.745Z,6.07
2022-09-12T20:59:24.284Z,5.60
2022-09-12T21:01:50.902Z,6.63
2022-09-12T21:04:18.320Z,6.07
2022-09-12T21:06:44.924Z,4.87
2022-09-12T21:09:11.493Z,5.40
2022-09-12T21:11:38.039Z,8.13
2022-09-12T21:14:04.693Z,4.67
2022-09-12T21:16:31.615Z,6.07
2022-09-12T21:18:59.420Z,6.90
2022-09-12T21:21:26.737Z,6.97
2022-09-12T21:23:56.965Z,8.57
2022-09-12T21:26:23.645Z,6.00
2022-09-12T21:28:50.236Z,8.37
2022-09-12T21:31:16.902Z,6.23
2022-09-12T21:33:43.502Z,6.37
2022-09-12T21:36:10.285Z,6.87
2022-09-12T21:38:37.082Z,6.13
2022-09-12T21:41:14.520Z,7.07
2022-09-12T21:43:41.912Z,7.20
2022-09-12T21:46:09.714Z,6.57
2022-09-12T21:48:37.258Z,8.97
2022-09-12T21:51:04.181Z,6.57
2022-09-12T21:53:31.792Z,6.93
2022-09-12T21:56:07.247Z,6.83
2022-09-12T21:58:33.840Z,6.70
2022-09-12T22:01:01.087Z,7.70
2022-09-12T22:03:28.937Z,7.37
2022-09-12T22:06:01.400Z,5.77
2022-09-12T22:08:28.954Z,6.00
2022-09-12T22:11:00.739Z,7.17
2022-09-12T22:13:27.837Z,5.13
2022-09-12T22:15:54.477Z,5.67
2022-09-12T22:18:21.085Z,6.50
2022-09-12T22:20:47.626Z,5.63
2022-09-12T22:23:33.117Z,6.67
2022-09-12T22:26:01.536Z,6.70
2022-09-12T22:28:29.661Z,5.67
2022-09-12T22:30:56.764Z,7.47
2022-09-12T22:33:23.357Z,5.40
2022-09-12T22:35:49.902Z,8.87
2022-09-12T22:38:16.459Z,7.47
2022-09-12T22:40:43.017Z,8.13
2022-09-12T22:43:09.612Z,6.77
2022-09-12T22:45:36.161Z,7.77
2022-09-12T22:48:06.215Z,8.07
2022-09-12T22:50:35.598Z,7.03
2022-09-12T22:53:02.178Z,7.63
2022-09-12T22:55:28.724Z,5.67
2022-09-12T22:57:55.270Z,7.10
2022-09-12T23:00:22.053Z,8.07
2022-09-12T23:02:48.609Z,9.33
2022-09-12T23:05:15.272Z,9.20
2022-09-12T23:07:41.901Z,7.70
2022-09-12T23:10:09.200Z,6.17
2022-09-12T23:12:35.867Z,7.50
2022-09-12T23:15:02.547Z,7.03
2022-09-12T23:17:29.114Z,6.27
2022-09-12T23:19:55.653Z,6.03
2022-09-12T23:22:22.237Z,6.33
2022-09-12T23:24:48.784Z,6.47
2022-09-12T23:27:15.371Z,7.23
2022-09-12T23:29:41.970Z,5.90
2022-09-12T23:32:08.601Z,6.37
2022-09-12T23:34:35.249Z,7.47
2022-09-12T23:37:01.802Z,5.73
2022-09-12T23:39:28.538Z,5.43
2022-09-12T23:41:55.482Z,6.23
2022-09-12T23:44:22.037Z,6.70
2022-09-12T23:46:48.590Z,7.67
2022-09-12T23:49:15.340Z,7.43
2022-09-12T23:51:41.898Z,8.97
2022-09-12T23:54:08.661Z,7.83
2022-09-12T23:56:35.212Z,7.40
2022-09-12T23:59:01.833Z,9.13
